sensor_id;sensor_type;location;lat;lon;timestamp;P1;durP1;ratioP1;P2;durP2;ratioP2
16820;SDS011;8527;49.740;6.604;2023-11-21T00:00:37;10.90;;;2.75;;
16820;SDS011;8527;49.740;6.604;2023-11-21T00:05:41;6.22;;;3.10;;
16820;SDS011;8527;49.740;6.604;2023-11-21T00:10:47;6.18;;;3.10;;
16820;SDS011;8527;49.740;6.604;2023-11-21T00:15:52;4.57;;;3.28;;
16820;SDS011;8527;49.740;6.604;2023-11-21T00:20:53;7.18;;;3.35;;
16820;SDS011;8527;49.740;6.604;2023-11-21T00:25:54;6.05;;;3.03;;
16820;SDS011;8527;49.740;6.604;2023-11-21T00:30:53;5.57;;;3.10;;
16820;SDS011;8527;49.740;6.604;2023-11-21T00:35:54;6.40;;;3.10;;
16820;SDS011;8527;49.740;6.604;2023-11-21T00:40:56;4.80;;;3.13;;
16820;SDS011;8527;49.740;6.604;2023-11-21T00:45:55;5.40;;;3.13;;
16820;SDS011;8527;49.740;6.604;2023-11-21T00:50:56;4.82;;;3.40;;
16820;SDS011;8527;49.740;6.604;2023-11-21T00:55:57;6.38;;;3.05;;
16820;SDS011;8527;49.740;6.604;2023-11-21T01:00:58;3.70;;;2.72;;
16820;SDS011;8527;49.740;6.604;2023-11-21T01:06:01;3.28;;;2.60;;
16820;SDS011;8527;49.740;6.604;2023-11-21T01:10:59;3.70;;;2.45;;
16820;SDS011;8527;49.740;6.604;2023-11-21T01:15:58;5.35;;;2.95;;
16820;SDS011;8527;49.740;6.604;2023-11-21T01:21:02;5.53;;;2.90;;
16820;SDS011;8527;49.740;6.604;2023-11-21T01:26:03;4.28;;;2.92;;
16820;SDS011;8527;49.740;6.604;2023-11-21T01:31:07;4.40;;;2.90;;
16820;SDS011;8527;49.740;6.604;2023-11-21T01:36:09;3.25;;;2.55;;
16820;SDS011;8527;49.740;6.604;2023-11-21T01:41:17;2.25;;;2.05;;
16820;SDS011;8527;49.740;6.604;2023-11-21T01:46:18;4.25;;;2.72;;
16820;SDS011;8527;49.740;6.604;2023-11-21T01:51:19;3.50;;;2.60;;
16820;SDS011;8527;49.740;6.604;2023-11-21T01:56:18;5.85;;;2.70;;
16820;SDS011;8527;49.740;6.604;2023-11-21T02:01:21;4.85;;;2.58;;
16820;SDS011;8527;49.740;6.604;2023-11-21T02:06:29;4.85;;;2.78;;
16820;SDS011;8527;49.740;6.604;2023-11-21T02:11:29;4.60;;;2.42;;
16820;SDS011;8527;49.740;6.604;2023-11-21T02:16:30;5.45;;;2.75;;
16820;SDS011;8527;49.740;6.604;2023-11-21T02:21:32;5.05;;;2.50;;
16820;SDS011;8527;49.740;6.604;2023-11-21T02:26:37;5.00;;;2.30;;
16820;SDS011;8527;49.740;6.604;2023-11-21T02:31:36;3.00;;;2.40;;
16820;SDS011;8527;49.740;6.604;2023-11-21T02:36:42;5.27;;;2.43;;
16820;SDS011;8527;49.740;6.604;2023-11-21T02:41:45;4.22;;;2.40;;
16820;SDS011;8527;49.740;6.604;2023-11-21T02:46:44;3.67;;;2.50;;
16820;SDS011;8527;49.740;6.604;2023-11-21T02:51:43;3.58;;;2.50;;
16820;SDS011;8527;49.740;6.604;2023-11-21T02:56:47;3.83;;;2.45;;
16820;SDS011;8527;49.740;6.604;2023-11-21T03:01:45;3.17;;;2.42;;
16820;SDS011;8527;49.740;6.604;2023-11-21T03:06:54;7.07;;;2.42;;
16820;SDS011;8527;49.740;6.604;2023-11-21T03:11:55;3.03;;;1.85;;
16820;SDS011;8527;49.740;6.604;2023-11-21T03:16:57;6.18;;;2.65;;
16820;SDS011;8527;49.740;6.604;2023-11-21T03:21:58;3.17;;;1.98;;
16820;SDS011;8527;49.740;6.604;2023-11-21T03:26:59;2.28;;;1.73;;
16820;SDS011;8527;49.740;6.604;2023-11-21T03:32:00;1.83;;;1.50;;
16820;SDS011;8527;49.740;6.604;2023-11-21T03:36:58;1.52;;;1.42;;
16820;SDS011;8527;49.740;6.604;2023-11-21T03:42:03;1.40;;;1.30;;
16820;SDS011;8527;49.740;6.604;2023-11-21T03:47:04;4.80;;;1.50;;
16820;SDS011;8527;49.740;6.604;2023-11-21T03:52:05;3.03;;;1.75;;
16820;SDS011;8527;49.740;6.604;2023-11-21T03:57:07;5.13;;;2.20;;
16820;SDS011;8527;49.740;6.604;2023-11-21T04:02:08;6.15;;;2.20;;
16820;SDS011;8527;49.740;6.604;2023-11-21T04:07:07;2.53;;;2.10;;
16820;SDS011;8527;49.740;6.604;2023-11-21T04:12:11;5.97;;;2.42;;
16820;SDS011;8527;49.740;6.604;2023-11-21T04:17:09;5.43;;;2.67;;
16820;SDS011;8527;49.740;6.604;2023-11-21T04:22:07;8.30;;;3.97;;
16820;SDS011;8527;49.740;6.604;2023-11-21T04:27:11;3.63;;;2.45;;
16820;SDS011;8527;49.740;6.604;2023-11-21T04:32:13;8.10;;;4.20;;
16820;SDS011;8527;49.740;6.604;2023-11-21T04:37:14;6.75;;;3.30;;
16820;SDS011;8527;49.740;6.604;2023-11-21T04:42:16;10.43;;;4.22;;
16820;SDS011;8527;49.740;6.604;2023-11-21T04:47:15;6.57;;;3.88;;
16820;SDS011;8527;49.740;6.604;2023-11-21T04:52:15;6.90;;;3.25;;
16820;SDS011;8527;49.740;6.604;2023-11-21T04:57:19;7.03;;;3.03;;
16820;SDS011;8527;49.740;6.604;2023-11-21T05:02:31;6.97;;;2.80;;
16820;SDS011;8527;49.740;6.604;2023-11-21T05:07:31;7.65;;;3.33;;
16820;SDS011;8527;49.740;6.604;2023-11-21T05:12:35;6.95;;;2.72;;
16820;SDS011;8527;49.740;6.604;2023-11-21T05:17:34;4.88;;;2.72;;
16820;SDS011;8527;49.740;6.604;2023-11-21T05:22:36;3.35;;;2.30;;
16820;SDS011;8527;49.740;6.604;2023-11-21T05:27:37;8.30;;;2.70;;
16820;SDS011;8527;49.740;6.604;2023-11-21T05:32:39;5.65;;;2.53;;
16820;SDS011;8527;49.740;6.604;2023-11-21T05:37:39;4.85;;;3.03;;
16820;SDS011;8527;49.740;6.604;2023-11-21T05:42:43;4.88;;;2.90;;
16820;SDS011;8527;49.740;6.604;2023-11-21T05:47:42;8.30;;;4.47;;
16820;SDS011;8527;49.740;6.604;2023-11-21T05:52:50;11.10;;;4.00;;
16820;SDS011;8527;49.740;6.604;2023-11-21T05:57:55;7.78;;;4.43;;
16820;SDS011;8527;49.740;6.604;2023-11-21T06:02:57;10.52;;;5.68;;
16820;SDS011;8527;49.740;6.604;2023-11-21T06:07:59;6.47;;;3.60;;
16820;SDS011;8527;49.740;6.604;2023-11-21T06:13:00;7.95;;;4.47;;
16820;SDS011;8527;49.740;6.604;2023-11-21T06:17:59;3.75;;;2.65;;
16820;SDS011;8527;49.740;6.604;2023-11-21T06:22:57;6.85;;;3.85;;
16820;SDS011;8527;49.740;6.604;2023-11-21T06:28:01;7.82;;;3.58;;
16820;SDS011;8527;49.740;6.604;2023-11-21T06:33:04;6.93;;;3.20;;
16820;SDS011;8527;49.740;6.604;2023-11-21T06:38:11;6.78;;;3.78;;
16820;SDS011;8527;49.740;6.604;2023-11-21T06:43:12;13.73;;;3.22;;
16820;SDS011;8527;49.740;6.604;2023-11-21T06:48:10;3.95;;;2.95;;
16820;SDS011;8527;49.740;6.604;2023-11-21T06:53:10;8.98;;;3.70;;
16820;SDS011;8527;49.740;6.604;2023-11-21T06:58:08;10.73;;;3.63;;
16820;SDS011;8527;49.740;6.604;2023-11-21T07:03:12;6.97;;;3.03;;
16820;SDS011;8527;49.740;6.604;2023-11-21T07:08:11;6.53;;;3.30;;
16820;SDS011;8527;49.740;6.604;2023-11-21T07:13:15;8.45;;;3.55;;
16820;SDS011;8527;49.740;6.604;2023-11-21T07:18:19;8.55;;;4.32;;
16820;SDS011;8527;49.740;6.604;2023-11-21T07:23:18;15.57;;;5.75;;
16820;SDS011;8527;49.740;6.604;2023-11-21T07:28:17;22.85;;;11.15;;
16820;SDS011;8527;49.740;6.604;2023-11-21T07:33:19;16.77;;;9.45;;
16820;SDS011;8527;49.740;6.604;2023-11-21T07:38:17;17.27;;;9.65;;
16820;SDS011;8527;49.740;6.604;2023-11-21T07:43:26;14.55;;;6.10;;
16820;SDS011;8527;49.740;6.604;2023-11-21T07:48:35;13.03;;;4.83;;
16820;SDS011;8527;49.740;6.604;2023-11-21T07:53:34;15.63;;;5.50;;
16820;SDS011;8527;49.740;6.604;2023-11-21T07:58:36;17.55;;;7.38;;
16820;SDS011;8527;49.740;6.604;2023-11-21T08:03:47;14.82;;;6.22;;
16820;SDS011;8527;49.740;6.604;2023-11-21T08:08:47;13.00;;;4.85;;
16820;SDS011;8527;49.740;6.604;2023-11-21T08:13:49;16.05;;;5.63;;
16820;SDS011;8527;49.740;6.604;2023-11-21T08:18:52;13.43;;;5.38;;
16820;SDS011;8527;49.740;6.604;2023-11-21T08:23:54;12.02;;;4.30;;
16820;SDS011;8527;49.740;6.604;2023-11-21T08:28:52;10.73;;;4.70;;
16820;SDS011;8527;49.740;6.604;2023-11-21T08:33:54;10.55;;;4.35;;
16820;SDS011;8527;49.740;6.604;2023-11-21T08:38:52;10.05;;;4.13;;
16820;SDS011;8527;49.740;6.604;2023-11-21T08:43:51;16.42;;;6.85;;
16820;SDS011;8527;49.740;6.604;2023-11-21T08:48:50;12.73;;;5.97;;
16820;SDS011;8527;49.740;6.604;2023-11-21T08:53:54;15.10;;;7.05;;
16820;SDS011;8527;49.740;6.604;2023-11-21T08:58:55;14.60;;;4.85;;
16820;SDS011;8527;49.740;6.604;2023-11-21T09:03:58;11.68;;;5.18;;
16820;SDS011;8527;49.740;6.604;2023-11-21T09:09:00;10.93;;;4.70;;
16820;SDS011;8527;49.740;6.604;2023-11-21T09:14:03;12.02;;;5.78;;
16820;SDS011;8527;49.740;6.604;2023-11-21T09:19:05;14.55;;;5.97;;
16820;SDS011;8527;49.740;6.604;2023-11-21T09:24:06;13.57;;;6.22;;
16820;SDS011;8527;49.740;6.604;2023-11-21T09:29:17;14.38;;;6.35;;
16820;SDS011;8527;49.740;6.604;2023-11-21T09:34:20;15.43;;;6.90;;
16820;SDS011;8527;49.740;6.604;2023-11-21T09:39:23;14.52;;;5.93;;
16820;SDS011;8527;49.740;6.604;2023-11-21T09:44:22;14.40;;;6.35;;
16820;SDS011;8527;49.740;6.604;2023-11-21T09:49:33;9.52;;;4.75;;
16820;SDS011;8527;49.740;6.604;2023-11-21T09:54:35;12.73;;;5.80;;
16820;SDS011;8527;49.740;6.604;2023-11-21T09:59:38;14.40;;;6.40;;
16820;SDS011;8527;49.740;6.604;2023-11-21T10:04:37;15.25;;;6.65;;
16820;SDS011;8527;49.740;6.604;2023-11-21T10:09:38;12.95;;;5.82;;
16820;SDS011;8527;49.740;6.604;2023-11-21T10:14:37;17.35;;;6.95;;
16820;SDS011;8527;49.740;6.604;2023-11-21T10:19:52;12.70;;;6.60;;
16820;SDS011;8527;49.740;6.604;2023-11-21T10:24:56;14.30;;;6.55;;
16820;SDS011;8527;49.740;6.604;2023-11-21T10:29:55;19.75;;;7.22;;
16820;SDS011;8527;49.740;6.604;2023-11-21T10:34:56;14.25;;;6.22;;
16820;SDS011;8527;49.740;6.604;2023-11-21T10:39:59;14.70;;;5.65;;
16820;SDS011;8527;49.740;6.604;2023-11-21T10:45:01;14.95;;;6.30;;
16820;SDS011;8527;49.740;6.604;2023-11-21T10:50:09;12.57;;;5.95;;
16820;SDS011;8527;49.740;6.604;2023-11-21T10:55:18;14.65;;;6.70;;
16820;SDS011;8527;49.740;6.604;2023-11-21T11:00:23;15.93;;;7.25;;
16820;SDS011;8527;49.740;6.604;2023-11-21T11:05:27;11.20;;;5.10;;
16820;SDS011;8527;49.740;6.604;2023-11-21T11:10:31;16.30;;;7.38;;
16820;SDS011;8527;49.740;6.604;2023-11-21T11:15:33;13.35;;;5.40;;
16820;SDS011;8527;49.740;6.604;2023-11-21T11:20:34;13.93;;;6.45;;
16820;SDS011;8527;49.740;6.604;2023-11-21T11:25:45;12.45;;;4.95;;
16820;SDS011;8527;49.740;6.604;2023-11-21T11:30:54;17.10;;;6.20;;
16820;SDS011;8527;49.740;6.604;2023-11-21T11:36:05;12.70;;;5.13;;
16820;SDS011;8527;49.740;6.604;2023-11-21T11:41:11;11.05;;;4.63;;
16820;SDS011;8527;49.740;6.604;2023-11-21T11:46:10;11.40;;;4.53;;
16820;SDS011;8527;49.740;6.604;2023-11-21T11:51:22;10.02;;;4.43;;
16820;SDS011;8527;49.740;6.604;2023-11-21T11:56:29;8.00;;;4.07;;
16820;SDS011;8527;49.740;6.604;2023-11-21T12:01:34;9.27;;;5.15;;
16820;SDS011;8527;49.740;6.604;2023-11-21T12:06:33;11.95;;;4.75;;
16820;SDS011;8527;49.740;6.604;2023-11-21T12:11:36;10.98;;;4.18;;
16820;SDS011;8527;49.740;6.604;2023-11-21T12:16:36;12.00;;;4.70;;
16820;SDS011;8527;49.740;6.604;2023-11-21T12:21:35;11.85;;;4.00;;
16820;SDS011;8527;49.740;6.604;2023-11-21T12:26:38;9.52;;;4.35;;
16820;SDS011;8527;49.740;6.604;2023-11-21T12:31:37;9.13;;;4.43;;
16820;SDS011;8527;49.740;6.604;2023-11-21T12:36:37;16.88;;;4.65;;
16820;SDS011;8527;49.740;6.604;2023-11-21T12:41:38;12.10;;;4.20;;
16820;SDS011;8527;49.740;6.604;2023-11-21T12:46:40;7.60;;;4.00;;
16820;SDS011;8527;49.740;6.604;2023-11-21T12:51:40;8.38;;;4.35;;
16820;SDS011;8527;49.740;6.604;2023-11-21T12:56:41;8.93;;;4.55;;
16820;SDS011;8527;49.740;6.604;2023-11-21T13:01:47;8.75;;;3.95;;
16820;SDS011;8527;49.740;6.604;2023-11-21T13:06:47;9.55;;;4.07;;
16820;SDS011;8527;49.740;6.604;2023-11-21T13:12:01;7.53;;;4.05;;
16820;SDS011;8527;49.740;6.604;2023-11-21T13:17:03;8.75;;;4.65;;
16820;SDS011;8527;49.740;6.604;2023-11-21T13:22:02;9.23;;;3.78;;
16820;SDS011;8527;49.740;6.604;2023-11-21T13:27:03;11.85;;;4.88;;
16820;SDS011;8527;49.740;6.604;2023-11-21T13:32:05;8.40;;;4.00;;
16820;SDS011;8527;49.740;6.604;2023-11-21T13:37:11;11.38;;;4.45;;
16820;SDS011;8527;49.740;6.604;2023-11-21T13:42:13;10.20;;;4.82;;
16820;SDS011;8527;49.740;6.604;2023-11-21T13:47:11;7.68;;;4.47;;
16820;SDS011;8527;49.740;6.604;2023-11-21T13:52:10;12.35;;;4.43;;
16820;SDS011;8527;49.740;6.604;2023-11-21T13:57:18;12.65;;;4.50;;
16820;SDS011;8527;49.740;6.604;2023-11-21T14:02:23;8.93;;;3.88;;
16820;SDS011;8527;49.740;6.604;2023-11-21T14:07:29;7.57;;;3.90;;
16820;SDS011;8527;49.740;6.604;2023-11-21T14:12:45;8.43;;;4.10;;
16820;SDS011;8527;49.740;6.604;2023-11-21T14:17:46;13.90;;;4.35;;
16820;SDS011;8527;49.740;6.604;2023-11-21T14:22:45;12.63;;;5.53;;
16820;SDS011;8527;49.740;6.604;2023-11-21T14:27:46;8.63;;;4.05;;
16820;SDS011;8527;49.740;6.604;2023-11-21T14:32:45;10.20;;;5.00;;
16820;SDS011;8527;49.740;6.604;2023-11-21T14:37:49;10.63;;;4.93;;
16820;SDS011;8527;49.740;6.604;2023-11-21T14:42:51;10.45;;;4.18;;
16820;SDS011;8527;49.740;6.604;2023-11-21T14:53:01;6.25;;;2.95;;
16820;SDS011;8527;49.740;6.604;2023-11-21T14:58:03;4.95;;;2.50;;
16820;SDS011;8527;49.740;6.604;2023-11-21T15:03:05;5.43;;;2.30;;
16820;SDS011;8527;49.740;6.604;2023-11-21T15:08:05;4.45;;;2.50;;
16820;SDS011;8527;49.740;6.604;2023-11-21T15:13:19;12.20;;;6.35;;
16820;SDS011;8527;49.740;6.604;2023-11-21T15:18:25;10.17;;;4.37;;
16820;SDS011;8527;49.740;6.604;2023-11-21T15:23:24;17.92;;;8.13;;
16820;SDS011;8527;49.740;6.604;2023-11-21T15:28:29;8.45;;;3.65;;
16820;SDS011;8527;49.740;6.604;2023-11-21T15:33:28;7.72;;;4.00;;
16820;SDS011;8527;49.740;6.604;2023-11-21T15:38:32;7.53;;;3.88;;
16820;SDS011;8527;49.740;6.604;2023-11-21T15:43:39;13.73;;;5.55;;
16820;SDS011;8527;49.740;6.604;2023-11-21T15:48:41;8.90;;;4.85;;
16820;SDS011;8527;49.740;6.604;2023-11-21T15:53:45;11.25;;;6.43;;
16820;SDS011;8527;49.740;6.604;2023-11-21T15:58:46;19.05;;;7.30;;
16820;SDS011;8527;49.740;6.604;2023-11-21T16:03:44;15.45;;;6.45;;
16820;SDS011;8527;49.740;6.604;2023-11-21T16:08:44;15.98;;;6.35;;
16820;SDS011;8527;49.740;6.604;2023-11-21T16:13:45;13.38;;;5.78;;
16820;SDS011;8527;49.740;6.604;2023-11-21T16:18:44;19.95;;;7.05;;
16820;SDS011;8527;49.740;6.604;2023-11-21T16:23:42;17.70;;;6.35;;
16820;SDS011;8527;49.740;6.604;2023-11-21T16:28:43;12.52;;;6.00;;
16820;SDS011;8527;49.740;6.604;2023-11-21T16:33:51;11.70;;;4.93;;
16820;SDS011;8527;49.740;6.604;2023-11-21T16:38:49;20.23;;;8.02;;
16820;SDS011;8527;49.740;6.604;2023-11-21T16:43:58;14.27;;;6.97;;
16820;SDS011;8527;49.740;6.604;2023-11-21T16:48:59;17.08;;;6.97;;
16820;SDS011;8527;49.740;6.604;2023-11-21T16:53:58;23.52;;;9.70;;
16820;SDS011;8527;49.740;6.604;2023-11-21T16:58:59;26.25;;;9.77;;
16820;SDS011;8527;49.740;6.604;2023-11-21T17:04:04;22.55;;;8.27;;
16820;SDS011;8527;49.740;6.604;2023-11-21T17:09:06;18.27;;;8.45;;
16820;SDS011;8527;49.740;6.604;2023-11-21T17:14:15;11.70;;;5.80;;
16820;SDS011;8527;49.740;6.604;2023-11-21T17:19:16;19.92;;;10.10;;
16820;SDS011;8527;49.740;6.604;2023-11-21T17:24:15;22.50;;;9.38;;
16820;SDS011;8527;49.740;6.604;2023-11-21T17:29:19;21.35;;;7.57;;
16820;SDS011;8527;49.740;6.604;2023-11-21T17:34:21;19.35;;;8.02;;
16820;SDS011;8527;49.740;6.604;2023-11-21T17:39:19;21.75;;;7.10;;
16820;SDS011;8527;49.740;6.604;2023-11-21T17:44:20;17.92;;;6.40;;
16820;SDS011;8527;49.740;6.604;2023-11-21T17:49:19;18.67;;;9.32;;
16820;SDS011;8527;49.740;6.604;2023-11-21T17:54:17;20.27;;;8.85;;
16820;SDS011;8527;49.740;6.604;2023-11-21T17:59:16;14.13;;;7.07;;
16820;SDS011;8527;49.740;6.604;2023-11-21T18:04:17;15.63;;;7.95;;
16820;SDS011;8527;49.740;6.604;2023-11-21T18:09:17;18.92;;;6.53;;
16820;SDS011;8527;49.740;6.604;2023-11-21T18:14:16;15.30;;;7.03;;
16820;SDS011;8527;49.740;6.604;2023-11-21T18:19:19;14.55;;;6.28;;
16820;SDS011;8527;49.740;6.604;2023-11-21T18:24:18;28.30;;;6.55;;
16820;SDS011;8527;49.740;6.604;2023-11-21T18:29:17;17.73;;;8.13;;
16820;SDS011;8527;49.740;6.604;2023-11-21T18:34:26;16.75;;;7.13;;
16820;SDS011;8527;49.740;6.604;2023-11-21T18:39:24;10.95;;;6.30;;
16820;SDS011;8527;49.740;6.604;2023-11-21T18:44:23;17.88;;;8.63;;
16820;SDS011;8527;49.740;6.604;2023-11-21T18:49:21;14.60;;;5.80;;
16820;SDS011;8527;49.740;6.604;2023-11-21T18:54:29;17.15;;;5.95;;
16820;SDS011;8527;49.740;6.604;2023-11-21T18:59:28;16.75;;;5.22;;
16820;SDS011;8527;49.740;6.604;2023-11-21T19:04:26;13.27;;;5.40;;
16820;SDS011;8527;49.740;6.604;2023-11-21T19:09:31;10.75;;;4.68;;
16820;SDS011;8527;49.740;6.604;2023-11-21T19:14:30;8.65;;;4.45;;
16820;SDS011;8527;49.740;6.604;2023-11-21T19:19:31;15.65;;;5.15;;
16820;SDS011;8527;49.740;6.604;2023-11-21T19:24:38;11.95;;;4.80;;
16820;SDS011;8527;49.740;6.604;2023-11-21T19:29:37;14.50;;;4.93;;
16820;SDS011;8527;49.740;6.604;2023-11-21T19:34:35;13.07;;;4.68;;
16820;SDS011;8527;49.740;6.604;2023-11-21T19:39:34;13.02;;;5.50;;
16820;SDS011;8527;49.740;6.604;2023-11-21T19:44:35;12.50;;;5.32;;
16820;SDS011;8527;49.740;6.604;2023-11-21T19:49:34;16.58;;;5.45;;
16820;SDS011;8527;49.740;6.604;2023-11-21T19:54:33;20.10;;;6.28;;
16820;SDS011;8527;49.740;6.604;2023-11-21T19:59:33;17.95;;;6.20;;
16820;SDS011;8527;49.740;6.604;2023-11-21T20:04:38;19.33;;;5.82;;
16820;SDS011;8527;49.740;6.604;2023-11-21T20:09:38;20.63;;;6.32;;
16820;SDS011;8527;49.740;6.604;2023-11-21T20:14:39;16.67;;;7.07;;
16820;SDS011;8527;49.740;6.604;2023-11-21T20:19:37;20.85;;;7.28;;
16820;SDS011;8527;49.740;6.604;2023-11-21T20:24:36;27.20;;;9.88;;
16820;SDS011;8527;49.740;6.604;2023-11-21T20:29:35;25.67;;;10.32;;
16820;SDS011;8527;49.740;6.604;2023-11-21T20:34:37;22.48;;;8.68;;
16820;SDS011;8527;49.740;6.604;2023-11-21T20:39:36;21.55;;;9.48;;
16820;SDS011;8527;49.740;6.604;2023-11-21T20:44:37;29.75;;;10.15;;
16820;SDS011;8527;49.740;6.604;2023-11-21T20:49:38;18.92;;;9.02;;
16820;SDS011;8527;49.740;6.604;2023-11-21T20:54:39;20.83;;;8.82;;
16820;SDS011;8527;49.740;6.604;2023-11-21T20:59:39;18.90;;;7.75;;
16820;SDS011;8527;49.740;6.604;2023-11-21T21:04:40;27.05;;;9.40;;
16820;SDS011;8527;49.740;6.604;2023-11-21T21:09:42;15.50;;;6.10;;
16820;SDS011;8527;49.740;6.604;2023-11-21T21:14:43;19.92;;;6.88;;
16820;SDS011;8527;49.740;6.604;2023-11-21T21:19:44;12.50;;;5.70;;
16820;SDS011;8527;49.740;6.604;2023-11-21T21:24:42;14.52;;;5.78;;
16820;SDS011;8527;49.740;6.604;2023-11-21T21:29:41;17.63;;;6.22;;
16820;SDS011;8527;49.740;6.604;2023-11-21T21:34:43;14.15;;;6.32;;
16820;SDS011;8527;49.740;6.604;2023-11-21T21:39:42;17.33;;;6.78;;
16820;SDS011;8527;49.740;6.604;2023-11-21T21:44:44;14.98;;;7.05;;
16820;SDS011;8527;49.740;6.604;2023-11-21T21:49:47;17.40;;;7.00;;
16820;SDS011;8527;49.740;6.604;2023-11-21T21:54:45;17.88;;;6.65;;
16820;SDS011;8527;49.740;6.604;2023-11-21T21:59:44;15.63;;;6.35;;
16820;SDS011;8527;49.740;6.604;2023-11-21T22:04:44;12.98;;;6.07;;
16820;SDS011;8527;49.740;6.604;2023-11-21T22:09:45;13.68;;;6.22;;
16820;SDS011;8527;49.740;6.604;2023-11-21T22:14:43;13.25;;;5.80;;
16820;SDS011;8527;49.740;6.604;2023-11-21T22:19:42;19.52;;;6.28;;
16820;SDS011;8527;49.740;6.604;2023-11-21T22:24:46;12.90;;;5.95;;
16820;SDS011;8527;49.740;6.604;2023-11-21T22:29:48;13.02;;;5.97;;
16820;SDS011;8527;49.740;6.604;2023-11-21T22:34:48;9.50;;;4.95;;
16820;SDS011;8527;49.740;6.604;2023-11-21T22:39:48;11.35;;;5.07;;
16820;SDS011;8527;49.740;6.604;2023-11-21T22:44:47;12.48;;;4.85;;
16820;SDS011;8527;49.740;6.604;2023-11-21T22:49:51;10.65;;;4.53;;
16820;SDS011;8527;49.740;6.604;2023-11-21T22:54:56;7.85;;;3.83;;
16820;SDS011;8527;49.740;6.604;2023-11-21T22:59:54;5.93;;;3.33;;
16820;SDS011;8527;49.740;6.604;2023-11-21T23:04:53;7.80;;;2.60;;
16820;SDS011;8527;49.740;6.604;2023-11-21T23:09:51;4.43;;;2.97;;
16820;SDS011;8527;49.740;6.604;2023-11-21T23:14:55;3.10;;;2.40;;
16820;SDS011;8527;49.740;6.604;2023-11-21T23:19:56;2.38;;;1.40;;
16820;SDS011;8527;49.740;6.604;2023-11-21T23:25:00;2.42;;;1.70;;
16820;SDS011;8527;49.740;6.604;2023-11-21T23:29:59;2.47;;;1.73;;
16820;SDS011;8527;49.740;6.604;2023-11-21T23:34:59;2.20;;;2.00;;
16820;SDS011;8527;49.740;6.604;2023-11-21T23:40:04;2.20;;;2.00;;
16820;SDS011;8527;49.740;6.604;2023-11-21T23:45:04;3.05;;;1.70;;
16820;SDS011;8527;49.740;6.604;2023-11-21T23:50:06;2.58;;;2.22;;
16820;SDS011;8527;49.740;6.604;2023-11-21T23:55:10;5.25;;;2.67;;
